createdAt,value
2023-02-01T00:00:31.795Z,100.00
2023-02-01T00:02:58.517Z,100.00
2023-02-01T00:05:25.287Z,100.00
2023-02-01T00:07:52.158Z,100.00
2023-02-01T00:10:19.059Z,100.00
2023-02-01T00:12:46.618Z,100.00
2023-02-01T00:15:13.428Z,100.00
2023-02-01T00:17:40.207Z,100.00
2023-02-01T00:20:07.431Z,100.00
2023-02-01T00:22:34.179Z,100.00
2023-02-01T00:25:00.991Z,100.00
2023-02-01T00:27:27.979Z,100.00
2023-02-01T00:29:57.717Z,100.00
2023-02-01T00:32:24.662Z,100.00
2023-02-01T00:34:51.459Z,100.00
2023-02-01T00:37:19.176Z,100.00
2023-02-01T00:39:45.901Z,100.00
2023-02-01T00:42:12.698Z,100.00
2023-02-01T00:44:39.481Z,100.00
2023-02-01T00:47:06.268Z,100.00
2023-02-01T00:49:33.598Z,100.00
2023-02-01T00:52:00.398Z,100.00
2023-02-01T00:54:27.116Z,100.00
2023-02-01T00:56:53.891Z,100.00
2023-02-01T00:59:20.604Z,100.00
2023-02-01T01:01:47.459Z,100.00
2023-02-01T01:04:14.202Z,100.00
2023-02-01T01:06:40.904Z,100.00
2023-02-01T01:09:08.732Z,100.00
2023-02-01T01:11:38.390Z,100.00
2023-02-01T01:14:08.468Z,100.00
2023-02-01T01:16:36.428Z,100.00
2023-02-01T01:19:03.921Z,100.00
2023-02-01T01:21:31.313Z,100.00
2023-02-01T01:23:58.409Z,100.00
2023-02-01T01:26:28.362Z,100.00
2023-02-01T01:29:00.166Z,100.00
2023-02-01T01:31:28.554Z,100.00
2023-02-01T01:33:57.895Z,100.00
2023-02-01T01:36:26.376Z,100.00
2023-02-01T01:38:53.274Z,100.00
2023-02-01T01:41:30.156Z,100.00
2023-02-01T01:44:06.080Z,100.00
2023-02-01T01:46:36.541Z,100.00
2023-02-01T01:49:12.857Z,100.00
2023-02-01T01:51:45.528Z,100.00
2023-02-01T01:54:18.361Z,100.00
2023-02-01T01:56:50.131Z,100.00
2023-02-01T01:59:17.396Z,100.00
2023-02-01T02:01:45.057Z,100.00
2023-02-01T02:04:12.169Z,100.00
2023-02-01T02:07:02.677Z,100.00
2023-02-01T02:09:29.547Z,100.00
2023-02-01T02:11:56.261Z,100.00
2023-02-01T02:14:24.917Z,100.00
2023-02-01T02:16:51.629Z,100.00
2023-02-01T02:20:13.114Z,100.00
2023-02-01T02:23:07.655Z,100.00
2023-02-01T02:26:02.255Z,100.00
2023-02-01T02:28:53.803Z,100.00
2023-02-01T02:31:29.712Z,100.00
2023-02-01T02:34:16.963Z,100.00
2023-02-01T02:36:49.653Z,100.00
2023-02-01T02:39:34.622Z,100.00
2023-02-01T02:42:39.909Z,100.00
2023-02-01T02:45:49.665Z,100.00
2023-02-01T02:48:22.508Z,100.00
2023-02-01T02:51:24.160Z,100.00
2023-02-01T02:54:27.229Z,100.00
2023-02-01T02:57:14.552Z,100.00
2023-02-01T03:00:02.650Z,100.00
2023-02-01T03:02:51.526Z,100.00
2023-02-01T03:05:18.544Z,100.00
2023-02-01T03:07:52.905Z,100.00
2023-02-01T03:10:41.486Z,100.00
2023-02-01T03:13:28.755Z,100.00
2023-02-01T03:16:10.853Z,100.00
2023-02-01T03:18:49.484Z,100.00
2023-02-01T03:21:57.993Z,100.00
2023-02-01T03:24:36.239Z,100.00
2023-02-01T03:27:32.143Z,100.00
2023-02-01T03:30:08.860Z,100.00
2023-02-01T03:32:57.776Z,100.00
2023-02-01T03:35:45.728Z,100.00
2023-02-01T03:38:37.756Z,100.00
2023-02-01T03:41:28.197Z,100.00
2023-02-01T03:44:16.613Z,100.00
2023-02-01T03:47:04.369Z,100.00
2023-02-01T03:49:36.777Z,100.00
2023-02-01T03:52:08.119Z,100.00
2023-02-01T03:54:36.233Z,100.00
2023-02-01T03:57:09.431Z,100.00
2023-02-01T03:59:41.073Z,100.00
2023-02-01T04:02:08.121Z,100.00
2023-02-01T04:04:36.007Z,100.00
2023-02-01T04:07:03.973Z,100.00
2023-02-01T04:09:30.782Z,100.00
2023-02-01T04:11:57.539Z,100.00
2023-02-01T04:14:24.373Z,100.00
2023-02-01T04:16:51.628Z,100.00
2023-02-01T04:19:18.496Z,100.00
2023-02-01T04:21:45.347Z,100.00
2023-02-01T04:24:12.253Z,100.00
2023-02-01T04:26:39.176Z,100.00
2023-02-01T04:29:05.965Z,100.00
2023-02-01T04:31:33.040Z,100.00
2023-02-01T04:34:00.176Z,100.00
2023-02-01T04:36:27.263Z,100.00
2023-02-01T04:38:54.079Z,100.00
2023-02-01T04:41:21.409Z,100.00
2023-02-01T04:43:49.296Z,100.00
2023-02-01T04:46:16.426Z,100.00
2023-02-01T04:48:43.471Z,100.00
2023-02-01T04:51:11.183Z,100.00
2023-02-01T04:53:38.137Z,100.00
2023-02-01T04:56:05.173Z,100.00
2023-02-01T04:58:31.885Z,100.00
2023-02-01T05:00:58.729Z,100.00
2023-02-01T05:03:25.483Z,100.00
2023-02-01T05:05:54.590Z,100.00
2023-02-01T05:08:23.429Z,100.00
2023-02-01T05:10:50.368Z,100.00
2023-02-01T05:13:35.671Z,100.00
2023-02-01T05:16:02.856Z,100.00
2023-02-01T05:18:29.932Z,100.00
2023-02-01T05:20:56.677Z,100.00
2023-02-01T05:23:23.489Z,100.00
2023-02-01T05:25:50.230Z,100.00
2023-02-01T05:28:17.276Z,100.00
2023-02-01T05:30:44.240Z,100.00
2023-02-01T05:33:11.025Z,100.00
2023-02-01T05:35:37.760Z,100.00
2023-02-01T05:38:04.493Z,100.00
2023-02-01T05:40:31.172Z,100.00
2023-02-01T05:42:57.929Z,100.00
2023-02-01T05:45:24.724Z,100.00
2023-02-01T05:47:51.507Z,100.00
2023-02-01T05:50:18.682Z,100.00
2023-02-01T05:52:45.670Z,100.00
2023-02-01T05:55:12.388Z,100.00
2023-02-01T05:57:39.194Z,100.00
2023-02-01T06:00:06.917Z,100.00
2023-02-01T06:02:39.294Z,100.00
2023-02-01T06:05:07.526Z,100.00
2023-02-01T06:07:34.405Z,100.00
2023-02-01T06:10:01.280Z,100.00
2023-02-01T06:12:29.160Z,100.00
2023-02-01T06:14:55.865Z,100.00
2023-02-01T06:17:22.712Z,100.00
2023-02-01T06:19:49.496Z,100.00
2023-02-01T06:22:16.323Z,100.00
2023-02-01T06:24:44.303Z,100.00
2023-02-01T06:27:11.099Z,100.00
2023-02-01T06:29:37.779Z,100.00
2023-02-01T06:32:04.566Z,100.00
2023-02-01T06:34:31.394Z,100.00
2023-02-01T06:36:58.113Z,100.00
2023-02-01T06:39:24.925Z,100.00
2023-02-01T06:41:51.791Z,100.00
2023-02-01T06:44:18.976Z,100.00
2023-02-01T06:46:45.763Z,100.00
2023-02-01T06:49:12.721Z,100.00
2023-02-01T06:51:39.458Z,100.00
2023-02-01T06:54:06.209Z,100.00
2023-02-01T06:56:32.941Z,100.00
2023-02-01T06:58:59.660Z,100.00
2023-02-01T07:01:27.285Z,100.00
2023-02-01T07:03:53.967Z,100.00
2023-02-01T07:06:21.074Z,100.00
2023-02-01T07:08:47.961Z,100.00
2023-02-01T07:11:16.582Z,100.00
2023-02-01T07:13:43.630Z,100.00
2023-02-01T07:16:16.511Z,100.00
2023-02-01T07:18:43.779Z,100.00
2023-02-01T07:21:10.428Z,100.00
2023-02-01T07:23:37.686Z,100.00
2023-02-01T07:26:05.551Z,100.00
2023-02-01T07:28:35.134Z,100.00
2023-02-01T07:31:10.373Z,100.00
2023-02-01T07:33:37.819Z,100.00
2023-02-01T07:36:07.261Z,100.00
2023-02-01T07:38:34.081Z,100.00
2023-02-01T07:41:02.316Z,100.00
2023-02-01T07:43:29.668Z,100.00
2023-02-01T07:45:57.463Z,100.00
2023-02-01T07:48:25.731Z,100.00
2023-02-01T07:51:06.463Z,100.00
2023-02-01T07:53:34.947Z,100.00
2023-02-01T07:56:02.550Z,100.00
2023-02-01T07:58:29.560Z,100.00
2023-02-01T08:01:15.216Z,100.00
2023-02-01T08:03:42.089Z,100.00
2023-02-01T08:06:08.909Z,100.00
2023-02-01T08:08:35.719Z,100.00
2023-02-01T08:11:04.851Z,100.00
2023-02-01T08:13:31.949Z,100.00
2023-02-01T08:16:03.189Z,100.00
2023-02-01T08:18:30.764Z,100.00
2023-02-01T08:20:58.004Z,100.00
2023-02-01T08:23:25.476Z,100.00
2023-02-01T08:25:52.183Z,100.00
2023-02-01T08:28:18.926Z,100.00
2023-02-01T08:30:46.178Z,100.00
2023-02-01T08:33:12.801Z,100.00
2023-02-01T08:35:43.610Z,100.00
2023-02-01T08:38:11.452Z,100.00
2023-02-01T08:40:38.135Z,100.00
2023-02-01T08:43:04.923Z,100.00
2023-02-01T08:45:31.812Z,100.00
2023-02-01T08:47:58.771Z,100.00
2023-02-01T08:50:26.697Z,100.00
2023-02-01T08:52:54.696Z,100.00
2023-02-01T08:55:21.815Z,100.00
2023-02-01T08:57:48.859Z,100.00
2023-02-01T09:00:18.201Z,100.00
2023-02-01T09:02:45.408Z,100.00
2023-02-01T09:05:12.412Z,100.00
2023-02-01T09:07:39.892Z,100.00
2023-02-01T09:10:07.374Z,100.00
2023-02-01T09:12:35.378Z,100.00
2023-02-01T09:15:02.618Z,100.00
2023-02-01T09:17:30.835Z,100.00
2023-02-01T09:19:57.832Z,100.00
2023-02-01T09:22:25.311Z,100.00
2023-02-01T09:24:55.085Z,100.00
2023-02-01T09:27:22.516Z,100.00
2023-02-01T09:29:53.803Z,100.00
2023-02-01T09:32:22.576Z,100.00
2023-02-01T09:34:50.637Z,100.00
2023-02-01T09:37:17.387Z,100.00
2023-02-01T09:39:44.509Z,100.00
2023-02-01T09:42:26.205Z,100.00
2023-02-01T09:45:04.459Z,100.00
2023-02-01T09:47:32.707Z,100.00
2023-02-01T09:50:07.602Z,100.00
2023-02-01T09:52:41.694Z,100.00
2023-02-01T09:55:21.273Z,100.00
2023-02-01T09:57:58.621Z,100.00
2023-02-01T10:00:29.850Z,100.00
2023-02-01T10:02:57.870Z,100.00
2023-02-01T10:05:42.755Z,100.00
2023-02-01T10:08:31.708Z,100.00
2023-02-01T10:11:49.343Z,100.00
2023-02-01T10:14:22.397Z,100.00
2023-02-01T10:16:55.844Z,100.00
2023-02-01T10:19:49.737Z,100.00
2023-02-01T10:23:04.999Z,100.00
2023-02-01T10:25:32.631Z,100.00
2023-02-01T10:28:02.814Z,100.00
2023-02-01T10:30:38.834Z,100.00
2023-02-01T10:33:28.664Z,100.00
2023-02-01T10:36:31.138Z,99.41
2023-02-01T10:39:00.230Z,98.05
2023-02-01T10:41:34.119Z,100.00
2023-02-01T10:44:03.352Z,100.00
2023-02-01T10:46:31.997Z,98.19
2023-02-01T10:49:03.336Z,83.75
2023-02-01T10:51:36.139Z,78.80
2023-02-01T10:54:17.716Z,75.79
2023-02-01T10:56:48.794Z,74.90
2023-02-01T10:59:21.543Z,78.79
2023-02-01T11:01:50.143Z,78.67
2023-02-01T11:04:21.189Z,79.00
2023-02-01T11:06:52.134Z,72.16
2023-02-01T11:09:25.538Z,78.49
2023-02-01T11:11:52.430Z,81.09
2023-02-01T11:14:26.984Z,76.12
2023-02-01T11:17:02.310Z,73.01
2023-02-01T11:19:29.852Z,73.76
2023-02-01T11:22:00.372Z,65.38
2023-02-01T11:24:34.451Z,57.17
2023-02-01T11:27:07.186Z,61.34
2023-02-01T11:29:40.657Z,53.31
2023-02-01T11:32:11.035Z,56.04
2023-02-01T11:34:50.371Z,53.39
2023-02-01T11:37:26.788Z,54.44
2023-02-01T11:40:00.367Z,51.76
2023-02-01T11:42:28.944Z,55.35
2023-02-01T11:45:26.581Z,57.92
2023-02-01T11:47:54.776Z,55.39
2023-02-01T11:50:33.666Z,63.15
2023-02-01T11:53:26.381Z,64.33
2023-02-01T11:56:11.018Z,64.93
2023-02-01T11:59:00.304Z,65.29
2023-02-01T12:01:57.782Z,66.78
2023-02-01T12:04:28.058Z,64.45
2023-02-01T12:07:05.078Z,68.79
2023-02-01T12:09:49.814Z,68.19
2023-02-01T12:12:50.866Z,66.89
2023-02-01T12:15:36.526Z,61.77
2023-02-01T12:18:25.049Z,61.47
2023-02-01T12:20:57.969Z,60.27
2023-02-01T12:23:30.694Z,61.87
2023-02-01T12:26:00.802Z,56.67
2023-02-01T12:29:09.653Z,54.76
2023-02-01T12:32:06.982Z,52.79
2023-02-01T12:34:49.360Z,54.57
2023-02-01T12:37:57.599Z,55.00
2023-02-01T12:40:51.578Z,56.11
2023-02-01T12:43:48.617Z,58.38
2023-02-01T12:46:27.041Z,59.04
2023-02-01T12:49:09.722Z,52.11
2023-02-01T12:51:40.247Z,53.13
2023-02-01T12:54:16.222Z,53.94
2023-02-01T12:56:56.404Z,53.88
2023-02-01T12:59:36.715Z,56.74
2023-02-01T13:02:25.235Z,54.98
2023-02-01T13:05:12.584Z,56.53
2023-02-01T13:08:01.348Z,57.52
2023-02-01T13:10:51.557Z,56.61
2023-02-01T13:13:18.597Z,62.01
2023-02-01T13:15:50.782Z,56.81
2023-02-01T13:18:27.461Z,56.06
2023-02-01T13:21:04.704Z,55.95
2023-02-01T13:23:38.876Z,55.26
2023-02-01T13:26:05.708Z,50.88
2023-02-01T13:28:42.254Z,50.10
2023-02-01T13:31:24.217Z,49.47
2023-02-01T13:34:28.363Z,46.20
2023-02-01T13:37:19.098Z,46.52
2023-02-01T13:40:29.628Z,49.54
2023-02-01T13:43:13.299Z,50.16
2023-02-01T13:45:47.676Z,47.50
2023-02-01T13:48:34.357Z,49.23
2023-02-01T13:51:02.089Z,47.05
2023-02-01T13:53:44.578Z,42.17
2023-02-01T13:56:17.946Z,46.95
2023-02-01T13:58:46.798Z,47.75
2023-02-01T14:01:22.704Z,45.32
2023-02-01T14:03:50.769Z,46.56
2023-02-01T14:06:36.423Z,43.40
2023-02-01T14:09:09.145Z,45.04
2023-02-01T14:11:44.825Z,49.64
2023-02-01T14:14:17.341Z,49.83
2023-02-01T14:16:53.186Z,42.75
2023-02-01T14:19:27.854Z,46.41
2023-02-01T14:22:02.066Z,45.74
2023-02-01T14:24:37.732Z,49.17
2023-02-01T14:27:26.469Z,45.33
2023-02-01T14:30:00.463Z,47.57
2023-02-01T14:32:37.088Z,46.51
2023-02-01T14:35:08.855Z,50.67
2023-02-01T14:37:38.983Z,46.99
2023-02-01T14:40:15.513Z,46.13
2023-02-01T14:42:42.262Z,44.56
2023-02-01T14:45:24.698Z,44.37
2023-02-01T14:48:15.855Z,41.28
2023-02-01T14:50:45.301Z,42.89
2023-02-01T14:53:14.773Z,41.20
2023-02-01T14:56:07.383Z,41.11
2023-02-01T14:59:01.357Z,39.22
2023-02-01T15:01:38.727Z,39.16
2023-02-01T15:04:11.025Z,43.41
2023-02-01T15:06:48.623Z,41.56
2023-02-01T15:09:30.273Z,39.92
2023-02-01T15:12:13.573Z,45.68
2023-02-01T15:14:52.221Z,41.10
2023-02-01T15:17:27.630Z,40.57
2023-02-01T15:19:59.334Z,39.93
2023-02-01T15:22:28.127Z,40.57
2023-02-01T15:24:56.946Z,43.05
2023-02-01T15:27:24.294Z,41.45
2023-02-01T15:29:52.002Z,44.99
2023-02-01T15:32:34.374Z,41.43
2023-02-01T15:35:02.533Z,42.96
2023-02-01T15:37:31.522Z,42.18
2023-02-01T15:40:20.543Z,42.55
2023-02-01T15:42:59.581Z,43.54
2023-02-01T15:45:30.925Z,42.26
2023-02-01T15:47:59.199Z,43.29
2023-02-01T15:50:34.365Z,44.38
2023-02-01T15:53:01.258Z,43.90
2023-02-01T15:55:43.874Z,44.57
2023-02-01T15:58:18.977Z,44.98
2023-02-01T16:00:50.211Z,44.33
2023-02-01T16:03:39.563Z,44.43
2023-02-01T16:06:27.093Z,45.34
2023-02-01T16:08:59.991Z,44.09
2023-02-01T16:11:26.802Z,43.21
2023-02-01T16:13:53.553Z,43.38
2023-02-01T16:16:20.435Z,43.15
2023-02-01T16:18:47.291Z,45.94
2023-02-01T16:21:14.135Z,45.33
2023-02-01T16:23:40.881Z,46.17
2023-02-01T16:26:07.919Z,44.89
2023-02-01T16:28:35.111Z,46.53
2023-02-01T16:31:02.819Z,47.29
2023-02-01T16:33:29.799Z,49.46
2023-02-01T16:36:00.964Z,46.66
2023-02-01T16:38:27.894Z,48.29
2023-02-01T16:40:54.701Z,49.09
2023-02-01T16:43:27.272Z,48.40
2023-02-01T16:45:56.442Z,47.16
2023-02-01T16:48:36.185Z,48.65
2023-02-01T16:51:11.987Z,49.26
2023-02-01T16:53:53.599Z,49.94
2023-02-01T16:56:24.310Z,49.61
2023-02-01T16:58:51.374Z,53.39
2023-02-01T17:01:20.174Z,49.88
2023-02-01T17:03:47.878Z,49.81
2023-02-01T17:06:18.362Z,49.88
2023-02-01T17:08:53.831Z,48.47
2023-02-01T17:11:21.335Z,52.72
2023-02-01T17:13:48.334Z,54.30
2023-02-01T17:16:31.592Z,55.85
2023-02-01T17:19:06.677Z,55.88
2023-02-01T17:21:42.837Z,58.94
2023-02-01T17:24:15.477Z,55.88
2023-02-01T17:26:43.475Z,54.80
2023-02-01T17:29:10.771Z,54.90
2023-02-01T17:31:40.842Z,55.57
2023-02-01T17:34:09.442Z,54.86
2023-02-01T17:36:36.635Z,62.33
2023-02-01T17:39:05.974Z,65.51
2023-02-01T17:41:33.924Z,57.82
2023-02-01T17:44:01.051Z,65.02
2023-02-01T17:46:28.496Z,63.65
2023-02-01T17:48:55.794Z,63.28
2023-02-01T17:51:25.243Z,62.44
2023-02-01T17:53:51.971Z,59.46
2023-02-01T17:56:21.932Z,57.86
2023-02-01T17:58:49.962Z,58.26
2023-02-01T18:01:23.607Z,55.46
2023-02-01T18:03:52.054Z,55.93
2023-02-01T18:06:27.678Z,57.06
2023-02-01T18:08:54.817Z,57.08
2023-02-01T18:11:23.608Z,58.34
2023-02-01T18:13:53.002Z,57.59
2023-02-01T18:16:21.357Z,55.46
2023-02-01T18:18:48.772Z,59.69
2023-02-01T18:21:17.738Z,58.46
2023-02-01T18:23:45.543Z,57.72
2023-02-01T18:26:14.273Z,57.89
2023-02-01T18:28:42.554Z,58.39
2023-02-01T18:31:30.996Z,61.33
2023-02-01T18:33:59.844Z,61.63
2023-02-01T18:36:27.868Z,62.55
2023-02-01T18:38:57.653Z,61.25
2023-02-01T18:41:25.362Z,60.73
2023-02-01T18:43:52.810Z,60.55
2023-02-01T18:46:21.721Z,59.67
2023-02-01T18:48:48.744Z,61.38
2023-02-01T18:51:20.470Z,61.78
2023-02-01T18:53:48.538Z,60.68
2023-02-01T18:56:18.150Z,60.22
2023-02-01T18:58:45.069Z,60.34
2023-02-01T19:01:19.847Z,61.58
2023-02-01T19:03:53.018Z,63.67
2023-02-01T19:06:30.845Z,68.33
2023-02-01T19:08:57.651Z,78.04
2023-02-01T19:11:24.816Z,77.41
2023-02-01T19:13:51.730Z,76.50
2023-02-01T19:16:18.508Z,76.86
2023-02-01T19:18:47.966Z,78.94
2023-02-01T19:21:15.549Z,73.12
2023-02-01T19:23:43.070Z,73.63
2023-02-01T19:26:14.836Z,73.59
2023-02-01T19:28:44.694Z,77.70
2023-02-01T19:31:11.522Z,84.79
2023-02-01T19:33:38.836Z,92.28
2023-02-01T19:36:06.541Z,84.86
2023-02-01T19:38:34.174Z,91.62
2023-02-01T19:41:01.476Z,98.46
2023-02-01T19:43:28.875Z,100.00
2023-02-01T19:45:56.108Z,99.34
2023-02-01T19:48:23.159Z,96.02
2023-02-01T19:50:50.118Z,96.76
2023-02-01T19:53:16.864Z,98.97
2023-02-01T19:55:47.196Z,99.64
2023-02-01T19:58:14.752Z,97.39
2023-02-01T20:00:41.154Z,100.00
2023-02-01T20:03:08.216Z,100.00
2023-02-01T20:05:35.157Z,100.00
2023-02-01T20:08:03.493Z,100.00
2023-02-01T20:10:30.468Z,100.00
2023-02-01T20:12:57.226Z,100.00
2023-02-01T20:15:27.035Z,100.00
2023-02-01T20:17:54.181Z,100.00
2023-02-01T20:20:20.908Z,99.51
2023-02-01T20:22:47.758Z,100.00
2023-02-01T20:25:14.879Z,100.00
2023-02-01T20:27:42.585Z,100.00
2023-02-01T20:30:09.797Z,100.00
2023-02-01T20:32:36.594Z,100.00
2023-02-01T20:35:03.483Z,100.00
2023-02-01T20:37:30.559Z,100.00
2023-02-01T20:39:57.306Z,100.00
2023-02-01T20:42:24.294Z,100.00
2023-02-01T20:44:51.175Z,100.00
2023-02-01T20:47:18.262Z,100.00
2023-02-01T20:49:45.445Z,100.00
2023-02-01T20:52:12.346Z,100.00
2023-02-01T20:54:39.217Z,100.00
2023-02-01T20:57:06.434Z,100.00
2023-02-01T20:59:33.095Z,100.00
2023-02-01T21:01:59.958Z,100.00
2023-02-01T21:04:27.648Z,100.00
2023-02-01T21:06:55.615Z,100.00
2023-02-01T21:09:23.265Z,100.00
2023-02-01T21:11:49.992Z,100.00
2023-02-01T21:14:16.917Z,100.00
2023-02-01T21:16:43.964Z,100.00
2023-02-01T21:19:12.579Z,100.00
2023-02-01T21:21:39.270Z,100.00
2023-02-01T21:24:06.325Z,100.00
2023-02-01T21:26:40.989Z,100.00
2023-02-01T21:29:12.949Z,100.00
2023-02-01T21:31:40.575Z,100.00
2023-02-01T21:34:07.784Z,100.00
2023-02-01T21:36:35.184Z,100.00
2023-02-01T21:39:03.747Z,100.00
2023-02-01T21:41:51.580Z,100.00
2023-02-01T21:44:18.498Z,100.00
2023-02-01T21:46:45.258Z,100.00
2023-02-01T21:49:12.055Z,100.00
2023-02-01T21:51:39.155Z,100.00
2023-02-01T21:54:07.589Z,100.00
2023-02-01T21:56:34.476Z,100.00
2023-02-01T21:59:01.315Z,100.00
2023-02-01T22:01:28.274Z,100.00
2023-02-01T22:03:55.112Z,100.00
2023-02-01T22:06:25.959Z,100.00
2023-02-01T22:08:53.308Z,100.00
2023-02-01T22:11:20.004Z,100.00
2023-02-01T22:13:47.090Z,100.00
2023-02-01T22:16:15.831Z,100.00
2023-02-01T22:18:42.901Z,100.00
2023-02-01T22:21:09.791Z,100.00
2023-02-01T22:23:36.498Z,100.00
2023-02-01T22:26:09.166Z,100.00
2023-02-01T22:28:36.960Z,100.00
2023-02-01T22:31:05.490Z,100.00
2023-02-01T22:33:33.616Z,100.00
2023-02-01T22:36:00.887Z,100.00
2023-02-01T22:38:29.948Z,100.00
2023-02-01T22:40:58.569Z,100.00
2023-02-01T22:43:25.521Z,100.00
2023-02-01T22:45:53.240Z,100.00
2023-02-01T22:48:20.349Z,100.00
2023-02-01T22:50:47.022Z,100.00
2023-02-01T22:53:13.738Z,100.00
2023-02-01T22:55:42.331Z,100.00
2023-02-01T22:58:09.088Z,100.00
2023-02-01T23:00:35.802Z,100.00
2023-02-01T23:03:02.636Z,100.00
2023-02-01T23:05:29.507Z,100.00
2023-02-01T23:07:56.257Z,100.00
2023-02-01T23:10:23.210Z,100.00
2023-02-01T23:12:50.070Z,100.00
2023-02-01T23:15:17.518Z,100.00
2023-02-01T23:17:44.863Z,100.00
2023-02-01T23:20:17.032Z,100.00
2023-02-01T23:22:45.561Z,100.00
2023-02-01T23:25:14.665Z,100.00
2023-02-01T23:27:41.896Z,100.00
2023-02-01T23:30:09.149Z,100.00
2023-02-01T23:32:36.741Z,100.00
2023-02-01T23:35:05.380Z,100.00
2023-02-01T23:37:32.188Z,100.00
2023-02-01T23:39:58.892Z,100.00
2023-02-01T23:42:25.647Z,100.00
2023-02-01T23:44:52.339Z,100.00
2023-02-01T23:47:19.112Z,100.00
2023-02-01T23:49:45.811Z,100.00
2023-02-01T23:52:12.586Z,100.00
2023-02-01T23:54:39.386Z,100.00
2023-02-01T23:57:06.163Z,100.00
2023-02-01T23:59:32.834Z,100.00
